Meadow Bluff, West Virginia
Current Conditions -  °F | °C
As of 2:15 PM on Thursday 30 Oct 2014 (Local Time) from KLWB Reporting Station
Overcast Overcast  
Wind Chill: 45°   Ceiling: 3100
Heat Index: 47°   Visibility: 10mi
Dew Point: 32°   Wind: 5mph
Humidity: 55%   Direction: 350°N
Pressure: 30.06"   Gusts: NA
Location:  37.9°N, 80.65°W
Report Text: KLWB 301815Z AUTO 35004KT 10SM OVC031 09/00 A3006 RMK AO2 T00850000
Loading
Personal Weather Stations






























Interactive Weather Map
Tropical Storm Tracking
New forecast layout! Learn more

10-Day Weather Forecast

Advertisements
Track Severe Weather on mobile